createdAt,value
2019-02-24T00:00:42.060Z,15.08
2019-02-24T00:03:12.459Z,17.32
2019-02-24T00:05:42.857Z,14.68
2019-02-24T00:08:13.584Z,13.88
2019-02-24T00:10:43.916Z,17.80
2019-02-24T00:13:14.243Z,16.70
2019-02-24T00:15:44.602Z,16.00
2019-02-24T00:18:16.133Z,15.32
2019-02-24T00:20:47.482Z,15.83
2019-02-24T00:23:19.777Z,12.37
2019-02-24T00:25:52.453Z,19.40
2019-02-24T00:28:22.822Z,13.62
2019-02-24T00:30:58.892Z,13.50
2019-02-24T00:33:29.230Z,12.43
2019-02-24T00:35:59.594Z,13.90
2019-02-24T00:38:29.933Z,17.40
2019-02-24T00:41:00.256Z,15.28
2019-02-24T00:43:31.072Z,14.60
2019-02-24T00:46:01.401Z,12.50
2019-02-24T00:48:31.724Z,14.35
2019-02-24T00:51:02.063Z,20.57
2019-02-24T00:53:32.428Z,15.55
2019-02-24T00:56:03.714Z,12.85
2019-02-24T00:58:34.065Z,14.28
2019-02-24T01:01:06.047Z,15.75
2019-02-24T01:03:36.403Z,18.95
2019-02-24T01:06:06.821Z,14.85
2019-02-24T01:08:37.122Z,14.13
2019-02-24T01:11:07.480Z,14.78
2019-02-24T01:13:37.772Z,10.75
2019-02-24T01:16:08.092Z,14.18
2019-02-24T01:18:38.520Z,13.85
2019-02-24T01:21:08.909Z,16.05
2019-02-24T01:23:39.222Z,15.23
2019-02-24T01:26:09.599Z,13.22
2019-02-24T01:28:39.948Z,20.37
2019-02-24T01:31:11.635Z,13.28
2019-02-24T01:33:41.949Z,15.20
2019-02-24T01:36:12.288Z,12.70
2019-02-24T01:38:42.682Z,14.25
2019-02-24T01:41:12.976Z,14.60
2019-02-24T01:43:43.319Z,15.32
2019-02-24T01:46:13.630Z,10.63
2019-02-24T01:48:44.275Z,10.20
2019-02-24T01:51:14.714Z,17.35
2019-02-24T01:53:45.004Z,13.15
2019-02-24T01:56:15.312Z,15.53
2019-02-24T01:58:45.620Z,13.28
2019-02-24T02:01:17.452Z,18.27
2019-02-24T02:03:47.805Z,13.50
2019-02-24T02:06:18.644Z,14.50
2019-02-24T02:08:48.957Z,11.50
2019-02-24T02:11:19.895Z,14.05
2019-02-24T02:13:50.228Z,13.18
2019-02-24T02:16:20.570Z,12.73
2019-02-24T02:18:51.373Z,15.85
2019-02-24T02:21:21.770Z,15.65
2019-02-24T02:23:52.138Z,14.90
2019-02-24T02:26:22.500Z,18.45
2019-02-24T02:28:53.252Z,14.68
2019-02-24T02:31:24.955Z,15.55
2019-02-24T02:33:56.200Z,16.02
2019-02-24T02:36:26.498Z,19.57
2019-02-24T02:38:57.946Z,17.70
2019-02-24T02:41:28.277Z,17.67
2019-02-24T02:43:58.616Z,18.40
2019-02-24T02:46:28.974Z,16.10
2019-02-24T02:48:59.311Z,16.95
2019-02-24T02:51:29.636Z,13.40
2019-02-24T02:53:59.979Z,21.60
2019-02-24T02:56:30.340Z,17.70
2019-02-24T02:59:00.709Z,19.37
2019-02-24T03:01:31.475Z,17.45
2019-02-24T03:04:01.734Z,21.07
2019-02-24T03:06:46.037Z,19.70
2019-02-24T03:09:16.387Z,16.65
2019-02-24T03:11:46.783Z,16.80
2019-02-24T03:14:17.148Z,21.12
2019-02-24T03:16:47.460Z,19.95
2019-02-24T03:19:17.815Z,23.00
2019-02-24T03:21:48.138Z,24.00
2019-02-24T03:24:18.497Z,20.25
2019-02-24T03:26:48.936Z,22.15
2019-02-24T03:29:19.264Z,22.55
2019-02-24T03:31:49.577Z,21.27
2019-02-24T03:34:19.874Z,18.92
2019-02-24T03:36:50.181Z,21.85
2019-02-24T03:39:20.508Z,19.45
2019-02-24T03:41:50.807Z,19.92
2019-02-24T03:44:21.151Z,20.92
2019-02-24T03:46:51.483Z,20.45
2019-02-24T03:49:21.788Z,17.25
2019-02-24T03:51:52.166Z,18.65
2019-02-24T03:54:22.576Z,19.32
2019-02-24T03:56:52.925Z,20.12
2019-02-24T03:59:23.241Z,16.02
2019-02-24T04:01:54.449Z,18.55
2019-02-24T04:04:24.806Z,25.05
2019-02-24T04:06:55.173Z,22.30
2019-02-24T04:09:25.497Z,20.48
2019-02-24T04:11:55.987Z,21.27
2019-02-24T04:14:26.288Z,19.75
2019-02-24T04:16:56.644Z,19.57
2019-02-24T04:19:26.976Z,19.30
2019-02-24T04:21:57.332Z,22.15
2019-02-24T04:24:27.696Z,21.60
2019-02-24T04:26:58.010Z,16.12
2019-02-24T04:29:28.353Z,20.15
2019-02-24T04:32:00.206Z,25.17
2019-02-24T04:34:30.546Z,18.73
2019-02-24T04:37:00.819Z,22.13
2019-02-24T04:39:31.159Z,22.70
2019-02-24T04:42:01.468Z,21.95
2019-02-24T04:44:31.976Z,18.57
2019-02-24T04:47:02.299Z,20.52
2019-02-24T04:49:32.678Z,21.07
2019-02-24T04:52:03.014Z,17.82
2019-02-24T04:54:33.352Z,23.52
2019-02-24T04:57:03.701Z,20.90
2019-02-24T04:59:35.221Z,18.27
2019-02-24T05:02:05.837Z,22.50
2019-02-24T05:04:36.144Z,19.55
2019-02-24T05:07:06.474Z,20.12
2019-02-24T05:09:36.858Z,16.27
2019-02-24T05:12:07.244Z,15.50
2019-02-24T05:14:38.005Z,22.62
2019-02-24T05:17:08.305Z,19.25
2019-02-24T05:19:38.640Z,19.80
2019-02-24T05:22:08.991Z,17.85
2019-02-24T05:24:39.393Z,20.23
2019-02-24T05:27:09.805Z,20.92
2019-02-24T05:29:45.713Z,18.27
2019-02-24T05:32:12.964Z,22.10
2019-02-24T05:34:43.250Z,21.25
2019-02-24T05:37:13.675Z,16.20
2019-02-24T05:39:44.014Z,17.45
2019-02-24T05:42:14.516Z,17.32
2019-02-24T05:44:44.853Z,17.57
2019-02-24T05:47:15.170Z,20.55
2019-02-24T05:49:45.547Z,17.77
2019-02-24T05:52:15.929Z,17.42
2019-02-24T05:54:46.276Z,20.20
2019-02-24T05:57:16.633Z,18.52
2019-02-24T05:59:54.961Z,20.72
2019-02-24T06:02:19.843Z,16.35
2019-02-24T06:04:50.357Z,19.17
2019-02-24T06:07:25.556Z,17.52
2019-02-24T06:09:55.927Z,18.95
2019-02-24T06:12:26.265Z,18.27
2019-02-24T06:14:56.605Z,19.10
2019-02-24T06:17:26.952Z,17.90
2019-02-24T06:19:57.302Z,16.57
2019-02-24T06:22:27.676Z,18.17
2019-02-24T06:24:58.057Z,17.87
2019-02-24T06:27:28.391Z,17.23
2019-02-24T06:30:04.907Z,15.10
2019-02-24T06:32:32.165Z,18.85
2019-02-24T06:35:02.573Z,16.50
2019-02-24T06:37:33.057Z,19.02
2019-02-24T06:40:03.428Z,15.88
2019-02-24T06:42:33.791Z,15.30
2019-02-24T06:45:04.119Z,18.05
2019-02-24T06:47:34.453Z,17.75
2019-02-24T06:50:04.812Z,21.02
2019-02-24T06:52:35.255Z,24.30
2019-02-24T06:55:05.844Z,19.75
2019-02-24T06:57:36.148Z,17.50
2019-02-24T07:00:13.785Z,17.12
2019-02-24T07:02:40.221Z,18.07
2019-02-24T07:05:10.594Z,16.60
2019-02-24T07:07:40.908Z,24.20
2019-02-24T07:10:11.306Z,18.42
2019-02-24T07:12:41.635Z,16.12
2019-02-24T07:15:11.956Z,17.67
2019-02-24T07:17:43.911Z,19.60
2019-02-24T07:20:14.247Z,21.90
2019-02-24T07:22:44.573Z,22.40
2019-02-24T07:25:14.929Z,19.85
2019-02-24T07:27:45.266Z,19.62
2019-02-24T07:30:23.124Z,17.92
2019-02-24T07:32:48.183Z,20.35
2019-02-24T07:35:19.433Z,22.20
2019-02-24T07:37:49.742Z,19.20
2019-02-24T07:40:20.096Z,18.55
2019-02-24T07:42:52.756Z,20.95
2019-02-24T07:45:23.588Z,17.10
2019-02-24T07:47:53.947Z,18.77
2019-02-24T07:50:24.361Z,18.20
2019-02-24T07:52:54.713Z,17.55
2019-02-24T07:55:25.113Z,16.02
2019-02-24T07:57:55.550Z,16.45
2019-02-24T08:00:32.288Z,15.50
2019-02-24T08:02:59.498Z,17.85
2019-02-24T08:05:29.921Z,19.98
2019-02-24T08:08:02.470Z,16.23
2019-02-24T08:10:32.829Z,15.93
2019-02-24T08:13:03.253Z,15.93
2019-02-24T08:15:33.621Z,15.90
2019-02-24T08:18:05.574Z,14.73
2019-02-24T08:20:35.861Z,18.00
2019-02-24T08:23:06.268Z,14.68
2019-02-24T08:25:36.617Z,13.93
2019-02-24T08:28:07.017Z,13.85
2019-02-24T08:30:41.633Z,14.20
2019-02-24T08:33:10.685Z,13.60
2019-02-24T08:35:40.989Z,15.98
2019-02-24T08:38:11.317Z,17.32
2019-02-24T08:40:41.672Z,15.48
2019-02-24T08:43:11.989Z,11.55
2019-02-24T08:45:42.406Z,12.75
2019-02-24T08:48:13.107Z,16.42
2019-02-24T08:50:43.469Z,13.15
2019-02-24T08:53:13.829Z,22.48
2019-02-24T08:55:44.181Z,14.20
2019-02-24T08:58:14.663Z,12.33
2019-02-24T09:00:52.953Z,12.70
2019-02-24T09:03:23.297Z,16.02
2019-02-24T09:05:53.657Z,16.57
2019-02-24T09:08:24.019Z,14.85
2019-02-24T09:10:54.373Z,13.55
2019-02-24T09:13:24.745Z,13.95
2019-02-24T09:15:55.124Z,16.27
2019-02-24T09:18:25.819Z,11.93
2019-02-24T09:20:56.150Z,18.90
2019-02-24T09:23:26.549Z,16.25
2019-02-24T09:25:56.941Z,14.33
2019-02-24T09:28:27.286Z,13.28
2019-02-24T09:31:00.779Z,19.77
2019-02-24T09:33:30.877Z,13.48
2019-02-24T09:36:01.788Z,13.55
2019-02-24T09:38:32.170Z,14.15
2019-02-24T09:41:04.169Z,13.45
2019-02-24T09:43:56.975Z,14.15
2019-02-24T09:46:28.259Z,14.18
2019-02-24T09:48:58.727Z,18.10
2019-02-24T09:51:29.086Z,14.03
2019-02-24T09:53:59.961Z,15.40
2019-02-24T09:56:39.937Z,13.20
2019-02-24T09:59:37.524Z,15.25
2019-02-24T10:02:06.515Z,14.30
2019-02-24T10:04:37.565Z,15.23
2019-02-24T10:07:07.962Z,13.60
2019-02-24T10:09:38.753Z,17.07
2019-02-24T10:12:09.253Z,15.45
2019-02-24T10:14:39.641Z,11.85
2019-02-24T10:17:11.805Z,15.43
2019-02-24T10:19:42.240Z,13.88
2019-02-24T10:22:12.625Z,16.02
2019-02-24T10:27:41.254Z,15.00
2019-02-24T10:30:11.838Z,13.08
2019-02-24T10:32:42.223Z,16.27
2019-02-24T10:35:13.487Z,14.60
2019-02-24T10:37:43.909Z,17.57
2019-02-24T10:40:14.509Z,14.43
2019-02-24T10:42:44.947Z,10.47
2019-02-24T10:45:15.309Z,14.77
2019-02-24T10:47:46.817Z,17.60
2019-02-24T10:50:18.274Z,11.73
2019-02-24T10:52:48.596Z,14.43
2019-02-24T10:55:18.925Z,14.50
2019-02-24T10:57:49.272Z,14.40
2019-02-24T11:00:19.740Z,17.47
2019-02-24T11:02:50.081Z,17.40
2019-02-24T11:05:25.314Z,16.27
2019-02-24T11:07:55.737Z,13.47
2019-02-24T11:10:26.261Z,13.40
2019-02-24T11:12:56.638Z,16.47
2019-02-24T11:15:27.009Z,15.03
2019-02-24T11:17:57.421Z,17.77
2019-02-24T11:20:27.798Z,13.13
2019-02-24T11:22:58.143Z,17.30
2019-02-24T11:25:28.501Z,16.60
2019-02-24T11:27:58.901Z,16.30
2019-02-24T11:30:29.266Z,18.70
2019-02-24T11:32:59.696Z,21.47
2019-02-24T11:35:31.507Z,18.03
2019-02-24T11:38:01.893Z,19.60
2019-02-24T11:40:32.369Z,12.40
2019-02-24T11:43:03.063Z,17.30
2019-02-24T11:45:33.439Z,18.17
2019-02-24T11:48:03.749Z,16.57
2019-02-24T11:50:34.110Z,14.27
2019-02-24T11:53:04.744Z,16.20
2019-02-24T11:55:35.064Z,15.73
2019-02-24T11:58:05.445Z,13.83
2019-02-24T12:00:39.593Z,15.35
2019-02-24T12:03:10.057Z,13.95
2019-02-24T12:05:40.435Z,16.45
2019-02-24T12:08:11.165Z,15.25
2019-02-24T12:10:41.529Z,17.73
2019-02-24T12:13:11.901Z,17.95
2019-02-24T12:15:43.573Z,16.70
2019-02-24T12:18:13.937Z,15.63
2019-02-24T12:20:44.287Z,15.25
2019-02-24T12:23:15.045Z,14.63
2019-02-24T12:25:45.513Z,17.98
2019-02-24T12:28:15.841Z,16.87
2019-02-24T12:30:46.215Z,13.45
2019-02-24T12:33:16.757Z,12.35
2019-02-24T12:35:49.453Z,14.98
2019-02-24T12:38:20.912Z,13.80
2019-02-24T12:40:51.223Z,17.32
2019-02-24T12:43:21.578Z,15.90
2019-02-24T12:45:51.920Z,15.38
2019-02-24T12:48:22.261Z,14.63
2019-02-24T12:50:52.689Z,20.75
2019-02-24T12:53:23.055Z,18.30
2019-02-24T12:55:53.397Z,17.87
2019-02-24T12:58:23.753Z,13.15
2019-02-24T13:00:54.316Z,18.35
2019-02-24T13:03:24.731Z,13.28
2019-02-24T13:05:56.461Z,15.80
2019-02-24T13:08:26.836Z,14.93
2019-02-24T13:10:57.155Z,14.38
2019-02-24T13:13:27.981Z,16.35
2019-02-24T13:15:58.300Z,14.95
2019-02-24T13:18:28.821Z,15.10
2019-02-24T13:20:59.164Z,17.82
2019-02-24T13:23:29.878Z,15.38
2019-02-24T13:26:00.211Z,22.35
2019-02-24T13:28:31.286Z,18.17
2019-02-24T13:31:03.238Z,13.22
2019-02-24T13:33:33.659Z,15.85
2019-02-24T13:36:05.958Z,19.00
2019-02-24T13:38:36.330Z,19.02
2019-02-24T13:41:06.682Z,17.35
2019-02-24T13:43:37.049Z,18.42
2019-02-24T13:46:07.436Z,18.32
2019-02-24T13:48:39.475Z,20.92
2019-02-24T13:51:10.071Z,18.85
2019-02-24T13:53:40.423Z,18.52
2019-02-24T13:56:10.857Z,14.40
2019-02-24T13:58:41.215Z,16.93
2019-02-24T14:01:11.665Z,17.45
2019-02-24T14:03:42.014Z,14.98
2019-02-24T14:06:13.925Z,20.08
2019-02-24T14:08:44.431Z,19.20
2019-02-24T14:11:14.985Z,21.48
2019-02-24T14:13:45.421Z,15.38
2019-02-24T14:16:15.813Z,20.48
2019-02-24T14:18:46.207Z,18.23
2019-02-24T14:21:35.603Z,17.48
2019-02-24T14:24:07.908Z,15.05
2019-02-24T14:26:38.287Z,15.85
2019-02-24T14:29:08.627Z,18.40
2019-02-24T14:31:39.003Z,17.73
2019-02-24T14:34:09.372Z,16.85
2019-02-24T14:36:39.753Z,21.42
2019-02-24T14:39:11.339Z,21.60
2019-02-24T14:41:41.935Z,23.70
2019-02-24T14:44:12.407Z,13.55
2019-02-24T14:46:42.755Z,16.57
2019-02-24T14:49:13.115Z,18.17
2019-02-24T14:51:43.621Z,16.35
2019-02-24T14:54:13.987Z,16.32
2019-02-24T14:56:44.776Z,13.15
2019-02-24T14:59:16.446Z,16.42
2019-02-24T15:01:46.962Z,13.83
2019-02-24T15:04:17.323Z,13.98
2019-02-24T15:06:47.710Z,16.27
2019-02-24T15:09:18.200Z,15.70
2019-02-24T15:11:48.629Z,13.93
2019-02-24T15:14:19.095Z,18.90
2019-02-24T15:16:49.443Z,14.60
2019-02-24T15:19:25.934Z,16.67
2019-02-24T15:21:56.248Z,17.15
2019-02-24T15:24:26.635Z,14.73
2019-02-24T15:26:57.037Z,14.58
2019-02-24T15:29:27.413Z,14.85
2019-02-24T15:31:57.821Z,16.65
2019-02-24T15:34:28.225Z,16.75
2019-02-24T15:36:59.557Z,16.73
2019-02-24T15:39:30.307Z,16.05
2019-02-24T15:42:00.817Z,21.10
2019-02-24T15:44:31.142Z,19.55
2019-02-24T15:47:01.611Z,18.25
2019-02-24T15:49:31.969Z,18.67
2019-02-24T15:52:09.733Z,18.00
2019-02-24T15:54:34.841Z,18.85
2019-02-24T15:57:05.881Z,20.27
2019-02-24T15:59:36.683Z,16.37
2019-02-24T16:02:08.071Z,21.17
2019-02-24T16:04:38.481Z,19.10
2019-02-24T16:07:09.053Z,18.75
2019-02-24T16:09:40.926Z,19.55
2019-02-24T16:12:11.320Z,17.87
2019-02-24T16:14:41.841Z,19.70
2019-02-24T16:17:12.361Z,21.57
2019-02-24T16:19:42.824Z,22.58
2019-02-24T16:22:13.269Z,19.75
2019-02-24T16:24:43.643Z,19.48
2019-02-24T16:27:14.145Z,20.60
2019-02-24T16:29:44.490Z,20.62
2019-02-24T16:32:16.525Z,19.60
2019-02-24T16:34:47.072Z,22.80
2019-02-24T16:37:17.481Z,19.15
2019-02-24T16:39:51.740Z,23.30
2019-02-24T16:42:22.065Z,17.40
2019-02-24T16:44:52.429Z,23.70
2019-02-24T16:47:24.127Z,29.77
2019-02-24T16:49:57.451Z,26.35
2019-02-24T16:52:27.769Z,24.52
2019-02-24T16:54:58.300Z,25.80
2019-02-24T16:57:28.795Z,26.68
2019-02-24T16:59:59.179Z,23.90
2019-02-24T17:02:40.789Z,24.40
2019-02-24T17:05:11.148Z,30.40
2019-02-24T17:07:41.551Z,24.00
2019-02-24T17:10:13.918Z,26.40
2019-02-24T17:12:44.243Z,29.37
2019-02-24T17:15:14.596Z,29.23
2019-02-24T17:17:44.974Z,24.45
2019-02-24T17:20:16.517Z,26.33
2019-02-24T17:22:46.965Z,25.30
2019-02-24T17:25:17.352Z,27.77
2019-02-24T17:27:47.857Z,24.15
2019-02-24T17:30:19.279Z,31.93
2019-02-24T17:32:51.297Z,25.05
2019-02-24T17:35:21.749Z,27.22
2019-02-24T17:37:52.184Z,26.45
2019-02-24T17:40:23.132Z,27.05
2019-02-24T17:42:53.707Z,31.42
2019-02-24T17:45:24.411Z,26.95
2019-02-24T17:47:55.257Z,28.32
2019-02-24T17:50:26.205Z,25.20
2019-02-24T17:52:57.149Z,25.17
2019-02-24T17:55:27.605Z,30.57
2019-02-24T17:57:58.037Z,24.98
2019-02-24T18:00:30.790Z,23.02
2019-02-24T18:03:01.237Z,26.75
2019-02-24T18:05:32.200Z,23.73
2019-02-24T18:08:03.867Z,31.20
2019-02-24T18:10:34.679Z,29.40
2019-02-24T18:13:05.397Z,34.70
2019-02-24T18:15:35.865Z,45.03
2019-02-24T18:18:06.681Z,45.05
2019-02-24T18:20:37.047Z,32.45
2019-02-24T18:23:07.925Z,23.77
2019-02-24T18:25:38.349Z,26.82
2019-02-24T18:28:08.724Z,29.10
2019-02-24T18:30:39.725Z,27.25
2019-02-24T18:33:10.195Z,29.52
2019-02-24T18:35:40.697Z,26.75
2019-02-24T18:38:11.090Z,25.95
2019-02-24T18:40:42.690Z,26.77
2019-02-24T18:43:14.009Z,28.20
2019-02-24T18:46:00.623Z,28.50
2019-02-24T18:48:31.130Z,27.73
2019-02-24T18:51:01.614Z,29.10
2019-02-24T18:53:33.549Z,25.52
2019-02-24T18:56:11.941Z,32.40
2019-02-24T18:58:44.213Z,28.92
2019-02-24T19:01:17.607Z,25.55
2019-02-24T19:03:57.443Z,29.10
2019-02-24T19:06:21.433Z,24.50
2019-02-24T19:08:51.799Z,30.00
2019-02-24T19:11:23.131Z,30.52
2019-02-24T19:13:54.011Z,31.82
2019-02-24T19:16:24.423Z,30.23
2019-02-24T19:18:54.883Z,35.58
2019-02-24T19:21:25.284Z,28.57
2019-02-24T19:23:56.137Z,37.23
2019-02-24T19:26:26.481Z,31.50
2019-02-24T19:28:56.841Z,31.52
2019-02-24T19:31:28.255Z,29.45
2019-02-24T19:34:06.380Z,31.12
2019-02-24T19:36:35.573Z,29.25
2019-02-24T19:39:07.486Z,29.50
2019-02-24T19:41:39.361Z,26.50
2019-02-24T19:44:10.861Z,28.62
2019-02-24T19:46:42.269Z,33.20
2019-02-24T19:49:13.849Z,26.73
2019-02-24T19:51:44.251Z,39.83
2019-02-24T19:54:14.616Z,28.95
2019-02-24T19:56:44.959Z,31.62
2019-02-24T19:59:15.345Z,27.80
2019-02-24T20:01:45.703Z,29.57
2019-02-24T20:04:16.460Z,27.02
2019-02-24T20:06:46.883Z,29.65
2019-02-24T20:09:17.440Z,25.43
2019-02-24T20:11:49.291Z,33.53
2019-02-24T20:14:19.635Z,31.27
2019-02-24T20:16:49.978Z,28.90
2019-02-24T20:19:20.340Z,31.42
2019-02-24T20:21:50.706Z,25.47
2019-02-24T20:24:21.597Z,25.10
2019-02-24T20:26:52.073Z,27.13
2019-02-24T20:29:22.410Z,31.82
2019-02-24T20:31:52.908Z,36.58
2019-02-24T20:34:25.772Z,27.52
2019-02-24T20:36:55.479Z,27.15
2019-02-24T20:39:25.840Z,30.00
2019-02-24T20:41:56.217Z,28.55
2019-02-24T20:44:26.642Z,36.05
2019-02-24T20:46:57.249Z,34.50
2019-02-24T20:49:27.623Z,33.55
2019-02-24T20:51:58.341Z,27.60
2019-02-24T20:54:28.675Z,31.07
2019-02-24T20:56:59.026Z,33.13
2019-02-24T20:59:29.369Z,37.80
2019-02-24T21:01:59.753Z,26.73
2019-02-24T21:04:30.163Z,38.75
2019-02-24T21:07:00.481Z,34.83
2019-02-24T21:09:30.949Z,28.40
2019-02-24T21:12:01.330Z,30.55
2019-02-24T21:14:32.227Z,31.52
2019-02-24T21:17:02.606Z,31.02
2019-02-24T21:19:32.979Z,27.32
2019-02-24T21:22:03.357Z,31.57
2019-02-24T21:24:35.149Z,31.05
2019-02-24T21:27:05.854Z,27.75
2019-02-24T21:29:36.233Z,29.72
2019-02-24T21:32:06.706Z,26.82
2019-02-24T21:34:37.097Z,28.35
2019-02-24T21:37:07.577Z,32.35
2019-02-24T21:39:37.969Z,24.23
2019-02-24T21:42:08.685Z,28.80
2019-02-24T21:44:39.095Z,33.73
2019-02-24T21:47:09.455Z,30.35
2019-02-24T21:49:39.820Z,28.20
2019-02-24T21:52:10.194Z,32.67
2019-02-24T21:54:40.570Z,26.23
2019-02-24T21:57:10.937Z,32.83
2019-02-24T21:59:45.021Z,30.05
2019-02-24T22:02:16.445Z,26.35
2019-02-24T22:04:46.792Z,28.38
2019-02-24T22:07:17.135Z,29.20
2019-02-24T22:09:47.537Z,27.95
2019-02-24T22:12:17.920Z,29.52
2019-02-24T22:14:48.349Z,26.90
2019-02-24T22:17:18.695Z,29.15
2019-02-24T22:19:53.609Z,24.30
2019-02-24T22:22:24.041Z,25.05
2019-02-24T22:24:54.489Z,23.98
2019-02-24T22:27:24.815Z,29.77
2019-02-24T22:29:55.141Z,22.60
2019-02-24T22:32:25.471Z,33.30
2019-02-24T22:34:55.865Z,27.58
2019-02-24T22:37:26.257Z,29.92
2019-02-24T22:39:57.009Z,27.42
2019-02-24T22:42:28.345Z,23.98
2019-02-24T22:44:59.158Z,29.72
2019-02-24T22:47:33.105Z,27.95
2019-02-24T22:50:03.439Z,29.92
2019-02-24T22:52:33.817Z,28.52
2019-02-24T22:55:04.298Z,29.60
2019-02-24T22:57:34.779Z,27.48
2019-02-24T23:00:18.405Z,27.73
2019-02-24T23:02:50.612Z,27.10
2019-02-24T23:05:20.997Z,24.60
2019-02-24T23:07:51.343Z,29.10
2019-02-24T23:10:21.673Z,30.23
2019-02-24T23:12:52.007Z,25.32
2019-02-24T23:15:22.333Z,25.48
2019-02-24T23:17:52.816Z,31.57
2019-02-24T23:20:24.205Z,30.45
2019-02-24T23:22:54.666Z,26.52
2019-02-24T23:25:25.045Z,28.52
2019-02-24T23:27:55.539Z,27.15
2019-02-24T23:30:25.873Z,23.55
2019-02-24T23:32:56.254Z,24.20
2019-02-24T23:35:26.679Z,24.30
2019-02-24T23:37:57.039Z,23.40
2019-02-24T23:40:27.417Z,24.30
2019-02-24T23:42:59.315Z,22.55
2019-02-24T23:45:29.700Z,24.85
2019-02-24T23:48:00.025Z,24.52
2019-02-24T23:50:30.421Z,23.95
2019-02-24T23:53:00.921Z,26.73
2019-02-24T23:55:31.337Z,25.57
2019-02-24T23:58:01.752Z,23.67
